This is the latest recevied weather packets stored in our database for station/object IT9CNT. If no packets are shown the sender has not sent any weather packets the latest 1 day(s).
| Time | Temp. | Humidity | Pressure | Rain* | Wind** | Luminosity | Snow |
|---|---|---|---|---|---|---|---|
| 1778035563 | 16.11° C | 79% | 1011.9 hPa | 0 mm | 0.45 m/s, 260° | - | - |
| 1778035503 | 16.11° C | 78% | 1011.8 hPa | 0 mm | 0.45 m/s, 256° | - | - |
| 1778035443 | 16.11° C | 78% | 1011.9 hPa | 0 mm | 0.89 m/s, 245° | - | - |
| 1778035383 | 16.11° C | 78% | 1012 hPa | 0 mm | 0.89 m/s, 253° | - | - |
| 1778035323 | 16.11° C | 78% | 1011.8 hPa | 0 mm | 1.34 m/s, 237° | - | - |
| 1778035263 | 16.11° C | 78% | 1012 hPa | 0 mm | 1.34 m/s, 225° | - | - |
| 1778035203 | 16.11° C | 78% | 1011.8 hPa | 0 mm | 1.79 m/s, 200° | - | - |
| 1778035143 | 16.11° C | 78% | 1012 hPa | 0 mm | 1.79 m/s, 178° | - | - |
| 1778035083 | 16.11° C | 78% | 1011.9 hPa | 0 mm | 2.24 m/s, 164° | - | - |
| 1778035023 | 16.11° C | 78% | 1011.9 hPa | 0 mm | 2.68 m/s, 151° | - | - |
| 1778034903 | 16.11° C | 78% | 1011.9 hPa | 0 mm | 3.58 m/s, 126° | - | - |
| 1778034843 | 16.11° C | 78% | 1011.8 hPa | 0 mm | 4.02 m/s, 126° | - | - |
| 1778034783 | 16.11° C | 78% | 1011.7 hPa | 0 mm | 4.02 m/s, 124° | - | - |
| 1778034723 | 16.67° C | 78% | 1011.6 hPa | 0 mm | 4.47 m/s, 118° | - | - |
| 1778034663 | 16.67° C | 77% | 1011.4 hPa | 0 mm | 4.92 m/s, 113° | - | - |
| 1778034543 | 16.67° C | 77% | 1011.3 hPa | 0 mm | 4.92 m/s, 106° | - | - |
| 1778034483 | 16.67° C | 77% | 1011.1 hPa | 0 mm | 5.36 m/s, 98° | - | - |
| 1778034423 | 16.11° C | 77% | 1010.9 hPa | 0 mm | 5.36 m/s, 93° | - | - |
| 1778034363 | 16.11° C | 77% | 1011.1 hPa | 0 mm | 5.36 m/s, 93° | - | - |
| 1778034303 | 16.11° C | 77% | 1010.8 hPa | 0 mm | 5.36 m/s, 89° | - | - |
| 1778034243 | 16.11° C | 77% | 1010.8 hPa | 0 mm | 5.36 m/s, 85° | - | - |
| 1778034183 | 16.11° C | 78% | 1010.9 hPa | 0 mm | 5.36 m/s, 78° | - | - |
| 1778034123 | 16.11° C | 78% | 1011 hPa | 0 mm | 5.81 m/s, 76° | - | - |
| 1778034063 | 16.11° C | 78% | 1010.8 hPa | 0 mm | 5.81 m/s, 77° | - | - |
| 1778034003 | 16.11° C | 78% | 1010.5 hPa | 0 mm | 5.36 m/s, 76° | - | - |
* Rain latest hour (hover to see other rain measurements)
** Current wind speed in m/s (hover to see current wind gust speed)